createdAt,value
2023-03-08T00:01:55.543Z,73.65
2023-03-08T00:04:22.015Z,73.80
2023-03-08T00:06:48.508Z,72.93
2023-03-08T00:09:14.972Z,71.45
2023-03-08T00:11:41.445Z,71.38
2023-03-08T00:14:07.909Z,72.14
2023-03-08T00:16:34.401Z,74.04
2023-03-08T00:19:01.490Z,74.30
2023-03-08T00:21:27.925Z,72.63
2023-03-08T00:23:54.807Z,73.69
2023-03-08T00:26:21.557Z,71.74
2023-03-08T00:28:48.300Z,71.70
2023-03-08T00:31:14.829Z,71.94
2023-03-08T00:33:41.301Z,73.47
2023-03-08T00:36:13.703Z,73.80
2023-03-08T00:38:40.195Z,75.31
2023-03-08T00:41:07.293Z,72.82
2023-03-08T00:43:33.910Z,72.96
2023-03-08T00:46:00.634Z,75.15
2023-03-08T00:48:27.949Z,75.05
2023-03-08T00:50:55.187Z,74.08
2023-03-08T00:53:21.604Z,73.84
2023-03-08T00:55:56.744Z,75.94
2023-03-08T00:58:24.633Z,74.87
2023-03-08T01:00:51.771Z,74.92
2023-03-08T01:03:21.721Z,73.90
2023-03-08T01:05:51.152Z,72.92
2023-03-08T01:08:18.669Z,71.90
2023-03-08T01:10:57.667Z,73.54
2023-03-08T01:13:29.843Z,73.57
2023-03-08T01:15:57.063Z,74.65
2023-03-08T01:18:23.960Z,76.13
2023-03-08T01:21:01.682Z,76.71
2023-03-08T01:23:28.445Z,75.96
2023-03-08T01:26:03.530Z,73.56
2023-03-08T01:28:30.816Z,74.24
2023-03-08T01:31:14.197Z,74.65
2023-03-08T01:33:41.866Z,75.16
2023-03-08T01:36:10.508Z,75.02
2023-03-08T01:38:37.402Z,74.97
2023-03-08T01:41:05.765Z,73.76
2023-03-08T01:43:34.909Z,74.06
2023-03-08T01:46:10.156Z,73.65
2023-03-08T01:48:45.151Z,74.20
2023-03-08T01:51:15.497Z,73.89
2023-03-08T01:53:43.044Z,70.85
2023-03-08T01:56:14.874Z,71.02
2023-03-08T01:58:43.819Z,72.22
2023-03-08T02:01:10.624Z,72.51
2023-03-08T02:03:37.170Z,72.17
2023-03-08T02:06:04.321Z,71.36
2023-03-08T02:08:32.618Z,72.19
2023-03-08T02:11:00.713Z,71.85
2023-03-08T02:13:28.038Z,72.44
2023-03-08T02:15:57.173Z,71.65
2023-03-08T02:18:23.928Z,72.51
2023-03-08T02:20:50.337Z,71.75
2023-03-08T02:23:19.528Z,71.15
2023-03-08T02:25:54.014Z,72.81
2023-03-08T02:28:23.804Z,70.51
2023-03-08T02:30:51.151Z,71.19
2023-03-08T02:33:18.700Z,70.09
2023-03-08T02:35:45.741Z,70.93
2023-03-08T02:38:14.524Z,71.41
2023-03-08T02:40:41.306Z,71.11
2023-03-08T02:43:08.044Z,73.45
2023-03-08T02:45:35.048Z,72.72
2023-03-08T02:48:03.223Z,73.47
2023-03-08T02:50:30.259Z,74.19
2023-03-08T02:52:56.662Z,70.66
2023-03-08T02:55:23.101Z,70.04
2023-03-08T02:57:49.528Z,71.18
2023-03-08T03:00:16.101Z,70.05
2023-03-08T03:02:42.523Z,70.54
2023-03-08T03:05:13.267Z,68.95
2023-03-08T03:07:42.052Z,71.00
2023-03-08T03:10:11.735Z,68.86
2023-03-08T03:12:38.574Z,69.03
2023-03-08T03:15:07.275Z,68.69
2023-03-08T03:17:33.833Z,69.15
2023-03-08T03:20:00.352Z,68.06
2023-03-08T03:22:27.910Z,68.03
2023-03-08T03:24:54.367Z,69.42
2023-03-08T03:27:20.928Z,68.42
2023-03-08T03:29:47.336Z,69.37
2023-03-08T03:32:13.941Z,68.40
2023-03-08T03:34:40.533Z,67.21
2023-03-08T03:37:06.995Z,67.35
2023-03-08T03:39:40.046Z,67.50
2023-03-08T03:42:07.756Z,67.48
2023-03-08T03:44:34.343Z,67.33
2023-03-08T03:47:00.824Z,67.79
2023-03-08T03:49:27.479Z,67.14
2023-03-08T03:51:53.918Z,66.98
2023-03-08T03:54:20.337Z,66.32
2023-03-08T03:56:46.820Z,66.64
2023-03-08T03:59:13.261Z,66.65
2023-03-08T04:01:39.722Z,68.09
2023-03-08T04:04:06.527Z,67.92
2023-03-08T04:06:34.061Z,68.25
2023-03-08T04:09:04.430Z,68.01
2023-03-08T04:11:36.656Z,67.57
2023-03-08T04:14:04.150Z,69.46
2023-03-08T04:16:32.806Z,68.29
2023-03-08T04:19:01.953Z,67.07
2023-03-08T04:21:29.175Z,66.92
2023-03-08T04:23:56.276Z,67.19
2023-03-08T04:26:23.779Z,66.61
2023-03-08T04:28:50.488Z,66.96
2023-03-08T04:31:24.782Z,66.27
2023-03-08T04:33:51.599Z,66.45
2023-03-08T04:36:19.565Z,66.85
2023-03-08T04:38:46.638Z,68.80
2023-03-08T04:41:13.437Z,67.37
2023-03-08T04:43:50.611Z,66.76
2023-03-08T04:46:19.435Z,67.13
2023-03-08T04:48:46.197Z,66.63
2023-03-08T04:51:14.497Z,67.92
2023-03-08T04:53:41.624Z,69.38
2023-03-08T04:56:09.044Z,69.71
2023-03-08T04:58:36.678Z,68.24
2023-03-08T05:01:23.784Z,67.76
2023-03-08T05:03:53.067Z,67.17
2023-03-08T05:06:22.206Z,67.10
2023-03-08T05:08:48.791Z,68.45
2023-03-08T05:11:24.609Z,67.42
2023-03-08T05:13:52.745Z,67.86
2023-03-08T05:16:19.610Z,67.93
2023-03-08T05:18:46.377Z,67.10
2023-03-08T05:21:15.413Z,67.08
2023-03-08T05:23:42.155Z,67.92
2023-03-08T05:26:11.328Z,68.16
2023-03-08T05:28:38.067Z,66.93
2023-03-08T05:31:11.881Z,68.00
2023-03-08T05:33:39.284Z,67.92
2023-03-08T05:36:06.870Z,67.94
2023-03-08T05:38:34.234Z,67.87
2023-03-08T05:41:06.810Z,67.57
2023-03-08T05:43:34.067Z,67.32
2023-03-08T05:46:03.766Z,67.66
2023-03-08T05:48:31.681Z,67.60
2023-03-08T05:50:58.574Z,67.15
2023-03-08T05:53:25.505Z,67.24
2023-03-08T05:55:52.212Z,66.66
2023-03-08T05:58:18.628Z,66.87
2023-03-08T06:00:45.064Z,67.99
2023-03-08T06:03:11.583Z,67.79
2023-03-08T06:05:38.165Z,68.48
2023-03-08T06:08:05.071Z,69.43
2023-03-08T06:10:31.477Z,69.17
2023-03-08T06:12:57.910Z,68.29
2023-03-08T06:15:24.412Z,68.47
2023-03-08T06:17:54.103Z,67.56
2023-03-08T06:20:20.983Z,68.33
2023-03-08T06:22:47.455Z,67.95
2023-03-08T06:25:13.907Z,67.67
2023-03-08T06:27:40.617Z,67.58
2023-03-08T06:30:07.437Z,68.36
2023-03-08T06:32:35.594Z,67.61
2023-03-08T06:35:02.128Z,67.96
2023-03-08T06:37:33.195Z,68.62
2023-03-08T06:39:59.910Z,67.55
2023-03-08T06:42:40.238Z,66.44
2023-03-08T06:45:08.645Z,67.61
2023-03-08T06:47:36.370Z,67.18
2023-03-08T06:50:02.944Z,65.92
2023-03-08T06:52:34.921Z,66.37
2023-03-08T06:55:01.386Z,65.58
2023-03-08T06:57:27.806Z,66.44
2023-03-08T06:59:54.258Z,66.63
2023-03-08T07:02:20.689Z,66.53
2023-03-08T07:04:49.473Z,66.08
2023-03-08T07:07:16.156Z,65.32
2023-03-08T07:09:42.663Z,65.46
2023-03-08T07:12:09.245Z,66.12
2023-03-08T07:14:35.671Z,66.56
2023-03-08T07:17:02.098Z,65.65
2023-03-08T07:19:28.506Z,65.18
2023-03-08T07:21:54.966Z,65.90
2023-03-08T07:24:21.390Z,65.79
2023-03-08T07:26:47.856Z,65.83
2023-03-08T07:29:14.235Z,64.73
2023-03-08T07:31:40.708Z,64.92
2023-03-08T07:34:07.179Z,64.49
2023-03-08T07:36:33.626Z,64.55
2023-03-08T07:39:00.121Z,64.04
2023-03-08T07:41:30.461Z,63.16
2023-03-08T07:43:56.948Z,63.20
2023-03-08T07:46:23.459Z,62.37
2023-03-08T07:48:55.046Z,61.93
2023-03-08T07:51:21.736Z,63.63
2023-03-08T07:53:48.205Z,64.07
2023-03-08T07:56:14.743Z,61.63
2023-03-08T07:58:41.250Z,61.74
2023-03-08T08:01:09.694Z,61.12
2023-03-08T08:03:37.699Z,60.97
2023-03-08T08:06:06.232Z,61.41
2023-03-08T08:08:32.899Z,61.20
2023-03-08T08:10:59.457Z,61.09
2023-03-08T08:13:25.929Z,60.99
2023-03-08T08:16:02.373Z,60.72
2023-03-08T08:18:29.366Z,60.08
2023-03-08T08:21:04.484Z,61.94
2023-03-08T08:23:31.696Z,60.23
2023-03-08T08:25:58.371Z,61.07
2023-03-08T08:28:27.098Z,63.57
2023-03-08T08:31:02.332Z,61.14
2023-03-08T08:33:29.532Z,61.29
2023-03-08T08:35:56.135Z,60.33
2023-03-08T08:38:23.149Z,61.12
2023-03-08T08:40:49.677Z,60.06
2023-03-08T08:43:16.770Z,60.58
2023-03-08T08:45:45.510Z,58.49
2023-03-08T08:48:12.656Z,57.91
2023-03-08T08:50:42.337Z,58.97
2023-03-08T08:53:09.929Z,58.77
2023-03-08T08:55:36.883Z,60.42
2023-03-08T08:58:04.787Z,60.43
2023-03-08T09:00:33.528Z,59.06
2023-03-08T09:03:00.966Z,58.40
2023-03-08T09:05:28.145Z,58.14
2023-03-08T09:07:55.469Z,58.54
2023-03-08T09:10:21.982Z,59.97
2023-03-08T09:12:48.444Z,58.02
2023-03-08T09:15:14.881Z,59.20
2023-03-08T09:17:41.392Z,59.94
2023-03-08T09:20:12.198Z,58.31
2023-03-08T09:22:38.980Z,60.52
2023-03-08T09:25:07.441Z,57.29
2023-03-08T09:27:34.478Z,56.98
2023-03-08T09:30:01.175Z,57.85
2023-03-08T09:32:27.763Z,57.22
2023-03-08T09:34:54.687Z,56.48
2023-03-08T09:37:21.167Z,56.23
2023-03-08T09:39:50.937Z,59.02
2023-03-08T09:42:27.549Z,59.35
2023-03-08T09:45:07.465Z,55.51
2023-03-08T09:47:46.651Z,55.17
2023-03-08T09:50:13.130Z,55.07
2023-03-08T09:52:48.584Z,54.70
2023-03-08T09:55:36.184Z,55.76
2023-03-08T09:58:11.848Z,55.95
2023-03-08T10:00:38.606Z,55.70
2023-03-08T10:03:14.258Z,55.33
2023-03-08T10:05:40.670Z,55.04
2023-03-08T10:08:19.251Z,56.34
2023-03-08T10:10:57.567Z,55.40
2023-03-08T10:13:29.689Z,54.68
2023-03-08T10:16:26.116Z,54.51
2023-03-08T10:18:58.523Z,54.25
2023-03-08T10:21:26.901Z,54.16
2023-03-08T10:24:26.584Z,54.81
2023-03-08T10:26:54.868Z,56.21
2023-03-08T10:29:21.506Z,55.42
2023-03-08T10:31:48.520Z,54.29
2023-03-08T10:34:20.901Z,54.77
2023-03-08T10:36:59.702Z,55.76
2023-03-08T10:39:26.392Z,54.47
2023-03-08T10:41:55.611Z,54.05
2023-03-08T10:44:44.314Z,54.32
2023-03-08T10:47:24.572Z,55.66
2023-03-08T10:50:31.818Z,54.62
2023-03-08T10:53:10.097Z,55.44
2023-03-08T10:55:48.144Z,54.69
2023-03-08T10:58:32.552Z,55.06
2023-03-08T11:01:02.422Z,56.88
2023-03-08T11:03:29.286Z,56.21
2023-03-08T11:06:01.598Z,56.94
2023-03-08T11:08:30.256Z,55.12
2023-03-08T11:11:10.865Z,54.77
2023-03-08T11:13:41.870Z,55.07
2023-03-08T11:16:08.518Z,54.95
2023-03-08T11:18:55.707Z,55.42
2023-03-08T11:21:37.504Z,55.53
2023-03-08T11:24:13.036Z,55.17
2023-03-08T11:27:02.482Z,54.40
2023-03-08T11:30:12.568Z,57.86
2023-03-08T11:32:45.083Z,55.22
2023-03-08T11:35:36.742Z,57.04
2023-03-08T11:38:19.936Z,55.24
2023-03-08T11:41:16.835Z,54.13
2023-03-08T11:44:31.216Z,54.30
2023-03-08T11:47:35.641Z,58.35
2023-03-08T11:50:08.087Z,58.49
2023-03-08T11:52:40.682Z,59.61
2023-03-08T11:55:28.764Z,61.86
2023-03-08T11:58:02.839Z,62.82
2023-03-08T12:00:37.578Z,62.65
2023-03-08T12:03:14.633Z,62.13
2023-03-08T12:05:55.280Z,61.44
2023-03-08T12:08:32.771Z,60.84
2023-03-08T12:11:13.644Z,64.44
2023-03-08T12:13:44.634Z,60.78
2023-03-08T12:16:40.751Z,62.27
2023-03-08T12:19:19.229Z,61.88
2023-03-08T12:22:07.271Z,63.52
2023-03-08T12:24:33.779Z,62.51
2023-03-08T12:27:05.871Z,62.61
2023-03-08T12:29:51.384Z,65.10
2023-03-08T12:32:19.485Z,67.48
2023-03-08T12:34:47.132Z,65.57
2023-03-08T12:37:19.611Z,65.88
2023-03-08T12:40:07.222Z,65.26
2023-03-08T12:42:41.126Z,63.94
2023-03-08T12:45:19.588Z,63.00
2023-03-08T12:48:04.378Z,67.17
2023-03-08T12:50:55.766Z,68.65
2023-03-08T12:53:34.581Z,70.77
2023-03-08T12:56:09.963Z,70.33
2023-03-08T12:58:39.837Z,70.33
2023-03-08T13:01:23.403Z,69.88
2023-03-08T13:03:50.038Z,71.41
2023-03-08T13:06:44.847Z,70.37
2023-03-08T13:09:23.195Z,69.61
2023-03-08T13:12:09.009Z,69.26
2023-03-08T13:14:59.329Z,69.42
2023-03-08T13:17:32.261Z,68.62
2023-03-08T13:20:05.560Z,69.33
2023-03-08T13:22:42.517Z,68.14
2023-03-08T13:25:44.297Z,70.79
2023-03-08T13:28:22.556Z,72.35
2023-03-08T13:31:01.442Z,71.99
2023-03-08T13:33:30.883Z,69.83
2023-03-08T13:36:06.107Z,70.54
2023-03-08T13:38:35.820Z,71.97
2023-03-08T13:41:02.573Z,70.87
2023-03-08T13:43:35.532Z,69.61
2023-03-08T13:46:04.676Z,70.55
2023-03-08T13:48:34.975Z,69.29
2023-03-08T13:51:02.759Z,71.02
2023-03-08T13:53:33.332Z,71.21
2023-03-08T13:56:02.894Z,70.17
2023-03-08T13:58:40.181Z,70.09
2023-03-08T14:01:22.498Z,70.22
2023-03-08T14:03:50.904Z,71.58
2023-03-08T14:06:33.598Z,70.51
2023-03-08T14:09:01.486Z,71.21
2023-03-08T14:11:30.736Z,69.60
2023-03-08T14:13:59.441Z,71.31
2023-03-08T14:16:37.615Z,71.91
2023-03-08T14:19:28.414Z,72.87
2023-03-08T14:21:59.907Z,72.63
2023-03-08T14:24:32.672Z,71.30
2023-03-08T14:27:05.507Z,71.32
2023-03-08T14:29:36.189Z,72.51
2023-03-08T14:32:02.809Z,71.66
2023-03-08T14:34:39.222Z,72.82
2023-03-08T14:37:11.727Z,71.98
2023-03-08T14:39:47.657Z,70.60
2023-03-08T14:42:35.889Z,70.45
2023-03-08T14:45:19.015Z,71.68
2023-03-08T14:47:55.660Z,69.54
2023-03-08T14:50:30.770Z,71.35
2023-03-08T14:52:59.363Z,69.41
2023-03-08T14:55:31.718Z,70.33
2023-03-08T14:58:01.034Z,70.03
2023-03-08T15:00:29.157Z,69.68
2023-03-08T15:02:57.254Z,72.26
2023-03-08T15:05:29.214Z,70.76
2023-03-08T15:07:58.113Z,70.06
2023-03-08T15:10:31.715Z,72.21
2023-03-08T15:12:59.480Z,69.96
2023-03-08T15:15:26.496Z,67.95
2023-03-08T15:17:52.975Z,68.30
2023-03-08T15:20:19.575Z,69.39
2023-03-08T15:22:50.185Z,72.16
2023-03-08T15:25:30.935Z,70.40
2023-03-08T15:27:57.420Z,72.90
2023-03-08T15:30:26.332Z,73.75
2023-03-08T15:32:53.410Z,76.14
2023-03-08T15:35:20.081Z,73.28
2023-03-08T15:37:47.045Z,74.82
2023-03-08T15:40:16.128Z,74.23
2023-03-08T15:42:43.288Z,75.50
2023-03-08T15:45:14.111Z,74.59
2023-03-08T15:47:40.922Z,74.55
2023-03-08T15:50:15.102Z,74.69
2023-03-08T15:52:41.539Z,74.28
2023-03-08T15:55:09.898Z,70.54
2023-03-08T15:57:37.554Z,68.98
2023-03-08T16:00:09.189Z,67.45
2023-03-08T16:02:36.105Z,73.00
2023-03-08T16:05:04.201Z,72.51
2023-03-08T16:07:30.810Z,72.19
2023-03-08T16:09:57.232Z,72.21
2023-03-08T16:12:23.993Z,74.43
2023-03-08T16:14:50.809Z,75.38
2023-03-08T16:17:18.000Z,72.72
2023-03-08T16:19:44.693Z,71.77
2023-03-08T16:22:11.393Z,72.76
2023-03-08T16:24:38.247Z,73.83
2023-03-08T16:27:05.355Z,75.00
2023-03-08T16:29:33.047Z,77.10
2023-03-08T16:31:59.538Z,78.79
2023-03-08T16:34:27.401Z,78.51
2023-03-08T16:36:54.815Z,76.30
2023-03-08T16:39:21.897Z,80.10
2023-03-08T16:41:48.409Z,78.05
2023-03-08T16:44:27.721Z,78.78
2023-03-08T16:46:54.505Z,79.53
2023-03-08T16:49:22.997Z,78.91
2023-03-08T16:51:51.089Z,76.46
2023-03-08T16:54:17.520Z,78.48
2023-03-08T16:56:44.014Z,77.69
2023-03-08T16:59:13.021Z,80.24
2023-03-08T17:01:40.117Z,78.28
2023-03-08T17:04:06.534Z,77.89
2023-03-08T17:06:33.262Z,77.25
2023-03-08T17:09:00.316Z,79.19
2023-03-08T17:11:29.570Z,81.62
2023-03-08T17:13:59.357Z,82.04
2023-03-08T17:16:28.543Z,83.69
2023-03-08T17:18:55.560Z,82.06
2023-03-08T17:21:22.705Z,81.93
2023-03-08T17:23:50.377Z,81.83
2023-03-08T17:26:20.141Z,77.76
2023-03-08T17:28:48.723Z,82.21
2023-03-08T17:31:17.473Z,81.87
2023-03-08T17:33:45.002Z,83.50
2023-03-08T17:36:13.784Z,84.66
2023-03-08T17:38:40.583Z,84.18
2023-03-08T17:41:09.529Z,83.65
2023-03-08T17:43:36.163Z,82.02
2023-03-08T17:46:08.444Z,80.94
2023-03-08T17:48:35.305Z,83.19
2023-03-08T17:51:10.493Z,83.86
2023-03-08T17:53:37.810Z,84.18
2023-03-08T17:56:09.071Z,83.53
2023-03-08T17:58:36.180Z,84.07
2023-03-08T18:01:09.979Z,84.26
2023-03-08T18:03:36.834Z,85.45
2023-03-08T18:06:04.565Z,80.10
2023-03-08T18:08:33.049Z,84.00
2023-03-08T18:10:59.658Z,81.65
2023-03-08T18:13:26.653Z,78.29
2023-03-08T18:15:55.008Z,76.71
2023-03-08T18:18:21.668Z,83.47
2023-03-08T18:20:48.101Z,85.23
2023-03-08T18:23:14.826Z,85.21
2023-03-08T18:25:41.376Z,84.94
2023-03-08T18:28:07.823Z,84.72
2023-03-08T18:30:34.276Z,85.92
2023-03-08T18:33:00.733Z,85.93
2023-03-08T18:35:27.211Z,83.31
2023-03-08T18:37:53.730Z,84.72
2023-03-08T18:40:20.284Z,85.07
2023-03-08T18:42:46.762Z,85.19
2023-03-08T18:45:14.721Z,83.92
2023-03-08T18:47:41.250Z,82.71
2023-03-08T18:50:08.276Z,84.51
2023-03-08T18:52:34.777Z,82.84
2023-03-08T18:55:01.273Z,82.28
2023-03-08T18:57:27.697Z,86.61
2023-03-08T18:59:54.189Z,85.07
2023-03-08T19:02:23.258Z,86.27
2023-03-08T19:04:49.750Z,84.04
2023-03-08T19:07:16.194Z,83.46
2023-03-08T19:09:44.766Z,85.80
2023-03-08T19:12:12.317Z,83.39
2023-03-08T19:14:38.759Z,83.98
2023-03-08T19:17:05.643Z,82.73
2023-03-08T19:19:32.059Z,85.23
2023-03-08T19:21:58.531Z,83.59
2023-03-08T19:24:26.622Z,80.21
2023-03-08T19:26:58.426Z,82.04
2023-03-08T19:29:30.457Z,80.18
2023-03-08T19:32:02.740Z,82.89
2023-03-08T19:34:30.533Z,80.95
2023-03-08T19:36:57.895Z,84.14
2023-03-08T19:39:27.083Z,83.65
2023-03-08T19:41:59.137Z,83.48
2023-03-08T19:44:26.408Z,80.85
2023-03-08T19:46:53.269Z,79.63
2023-03-08T19:49:23.459Z,78.98
2023-03-08T19:51:51.853Z,80.18
2023-03-08T19:54:19.006Z,77.78
2023-03-08T19:56:45.450Z,78.39
2023-03-08T19:59:12.007Z,77.73
2023-03-08T20:01:39.306Z,81.38
2023-03-08T20:04:07.061Z,77.98
2023-03-08T20:06:36.421Z,78.08
2023-03-08T20:09:05.364Z,79.68
2023-03-08T20:11:32.298Z,78.25
2023-03-08T20:13:59.197Z,77.29
2023-03-08T20:16:26.988Z,78.15
2023-03-08T20:18:56.011Z,75.70
2023-03-08T20:21:26.697Z,77.91
2023-03-08T20:23:57.381Z,77.16
2023-03-08T20:26:28.947Z,75.23
2023-03-08T20:28:56.533Z,75.17
2023-03-08T20:31:23.546Z,76.84
2023-03-08T20:33:50.565Z,76.69
2023-03-08T20:36:16.992Z,75.09
2023-03-08T20:38:43.523Z,75.29
2023-03-08T20:41:15.727Z,76.65
2023-03-08T20:43:44.168Z,76.61
2023-03-08T20:46:12.863Z,76.52
2023-03-08T20:48:41.947Z,74.49
2023-03-08T20:51:11.824Z,74.76
2023-03-08T20:53:38.992Z,74.80
2023-03-08T20:56:11.967Z,77.59
2023-03-08T20:58:38.594Z,76.05
2023-03-08T21:01:24.591Z,75.29
2023-03-08T21:03:51.270Z,77.47
2023-03-08T21:06:20.665Z,80.38
2023-03-08T21:08:48.615Z,78.83
2023-03-08T21:11:16.147Z,74.97
2023-03-08T21:13:42.659Z,74.85
2023-03-08T21:16:13.526Z,80.20
2023-03-08T21:18:45.520Z,79.82
2023-03-08T21:21:27.213Z,77.83
2023-03-08T21:23:58.764Z,78.95
2023-03-08T21:26:27.663Z,78.04
2023-03-08T21:28:57.634Z,76.39
2023-03-08T21:31:24.609Z,75.02
2023-03-08T21:33:51.117Z,76.05
2023-03-08T21:36:18.202Z,76.35
2023-03-08T21:38:44.691Z,76.64
2023-03-08T21:41:25.644Z,74.48
2023-03-08T21:43:52.244Z,76.69
2023-03-08T21:46:19.531Z,76.08
2023-03-08T21:48:46.461Z,75.13
2023-03-08T21:51:13.475Z,75.33
2023-03-08T21:53:40.450Z,75.28
2023-03-08T21:56:09.533Z,74.85
2023-03-08T21:58:36.892Z,74.02
2023-03-08T22:01:04.793Z,74.98
2023-03-08T22:03:33.256Z,76.25
2023-03-08T22:06:00.441Z,74.56
2023-03-08T22:08:27.316Z,74.57
2023-03-08T22:10:54.374Z,73.79
2023-03-08T22:13:21.242Z,74.90
2023-03-08T22:15:47.770Z,75.14
2023-03-08T22:18:14.202Z,73.75
2023-03-08T22:20:40.635Z,72.83
2023-03-08T22:23:07.126Z,74.17
2023-03-08T22:25:33.521Z,74.34
2023-03-08T22:27:59.957Z,73.38
2023-03-08T22:30:26.641Z,73.32
2023-03-08T22:32:54.677Z,73.76
2023-03-08T22:35:22.265Z,73.53
2023-03-08T22:37:49.573Z,72.90
2023-03-08T22:40:18.334Z,72.18
2023-03-08T22:42:45.634Z,72.83
2023-03-08T22:45:12.539Z,72.61
2023-03-08T22:47:38.973Z,74.89
2023-03-08T22:50:05.801Z,74.60
2023-03-08T22:52:32.223Z,74.77
2023-03-08T22:54:58.635Z,77.31
2023-03-08T22:57:25.150Z,74.91
2023-03-08T22:59:58.569Z,75.21
2023-03-08T23:02:25.182Z,78.07
2023-03-08T23:04:51.651Z,75.46
2023-03-08T23:07:18.181Z,76.22
2023-03-08T23:09:44.582Z,75.31
2023-03-08T23:12:11.004Z,73.74
2023-03-08T23:14:37.450Z,74.38
2023-03-08T23:17:03.960Z,76.86
2023-03-08T23:19:30.489Z,76.01
2023-03-08T23:21:57.627Z,75.68
2023-03-08T23:24:24.028Z,74.91
2023-03-08T23:26:50.528Z,73.94
2023-03-08T23:29:16.981Z,74.55
2023-03-08T23:31:45.745Z,73.42
2023-03-08T23:34:12.452Z,73.25
2023-03-08T23:36:38.902Z,75.96
2023-03-08T23:39:05.371Z,75.52
2023-03-08T23:41:32.548Z,73.44
2023-03-08T23:44:01.197Z,76.13
2023-03-08T23:46:27.700Z,77.43
2023-03-08T23:48:56.465Z,77.17
2023-03-08T23:51:24.273Z,74.47
2023-03-08T23:53:53.086Z,78.03
2023-03-08T23:56:30.922Z,76.47
2023-03-08T23:59:01.286Z,77.14
